createdAt,value
2019-04-07T00:01:24.068Z,36.60
2019-04-07T00:01:58.684Z,37.40
2019-04-07T00:03:08.414Z,34.50
2019-04-07T00:04:30.688Z,35.90
2019-04-07T00:05:29.622Z,37.20
2019-04-07T00:06:56.043Z,37.20
2019-04-07T00:07:54.139Z,37.60
2019-04-07T00:08:42.179Z,37.20
2019-04-07T00:10:02.851Z,36.50
2019-04-07T00:10:48.704Z,36.50
2019-04-07T00:11:51.957Z,36.00
2019-04-07T00:12:57.633Z,35.80
2019-04-07T00:14:28.185Z,33.00
2019-04-07T00:15:27.763Z,35.90
2019-04-07T00:16:13.628Z,33.80
2019-04-07T00:17:25.052Z,34.80
2019-04-07T00:18:22.363Z,35.20
2019-04-07T00:19:32.235Z,34.10
2019-04-07T00:21:02.394Z,35.10
2019-04-07T00:21:42.532Z,36.30
2019-04-07T00:22:41.317Z,36.30
2019-04-07T00:23:56.376Z,36.70
2019-04-07T00:24:51.975Z,36.10
2019-04-07T00:26:09.846Z,34.80
2019-04-07T00:27:32.439Z,33.80
2019-04-07T00:28:23.543Z,34.00
2019-04-07T00:29:22.832Z,35.10
2019-04-07T00:30:39.906Z,34.70
2019-04-07T00:32:02.508Z,33.40
2019-04-07T00:32:50.697Z,33.60
2019-04-07T00:33:44.713Z,33.80
2019-04-07T00:35:04.333Z,32.90
2019-04-07T00:36:00.866Z,33.20
2019-04-07T00:37:09.875Z,33.00
2019-04-07T00:38:07.402Z,34.60
2019-04-07T00:39:22.594Z,34.40
2019-04-07T00:40:14.506Z,34.80
2019-04-07T00:41:27.508Z,35.50
2019-04-07T00:42:29.115Z,35.40
2019-04-07T00:43:40.842Z,35.90
2019-04-07T00:44:51.294Z,36.10
2019-04-07T00:45:51.506Z,36.60
2019-04-07T00:46:58.621Z,40.40
2019-04-07T00:48:00.425Z,41.70
2019-04-07T00:49:07.404Z,41.60
2019-04-07T00:50:53.896Z,41.10
2019-04-07T00:51:37.564Z,38.80
2019-04-07T00:52:40.493Z,39.30
2019-04-07T00:53:42.139Z,37.60
2019-04-07T00:54:46.970Z,38.70
2019-04-07T00:56:12.478Z,37.60
2019-04-07T00:57:02.332Z,37.70
2019-04-07T00:58:23.714Z,36.30
2019-04-07T00:59:02.812Z,39.60
2019-04-07T01:00:38.788Z,37.60
2019-04-07T01:01:20.757Z,37.20
2019-04-07T01:02:19.261Z,35.70
2019-04-07T01:03:33.710Z,35.80
2019-04-07T01:04:47.651Z,37.10
2019-04-07T01:05:42.564Z,35.00
2019-04-07T01:06:37.315Z,35.70
2019-04-07T01:07:46.638Z,35.50
2019-04-07T01:08:52.499Z,38.30
2019-04-07T01:09:55.277Z,37.60
2019-04-07T01:11:29.791Z,40.20
2019-04-07T01:12:14.210Z,40.30
2019-04-07T01:13:37.395Z,38.30
2019-04-07T01:14:17.090Z,37.90
2019-04-07T01:15:21.092Z,37.20
2019-04-07T01:16:52.935Z,35.10
2019-04-07T01:17:56.846Z,35.80
2019-04-07T01:18:38.113Z,36.10
2019-04-07T01:20:18.163Z,36.10
2019-04-07T01:21:00.571Z,38.30
2019-04-07T01:21:59.126Z,35.30
2019-04-07T01:23:29.443Z,35.70
2019-04-07T01:24:53.422Z,35.80
2019-04-07T01:26:06.296Z,38.30
2019-04-07T01:27:06.737Z,38.00
2019-04-07T01:28:08.281Z,37.00
2019-04-07T01:29:51.688Z,36.60
2019-04-07T01:30:27.225Z,37.10
2019-04-07T01:31:53.361Z,37.40
2019-04-07T01:32:55.308Z,37.90
2019-04-07T01:33:46.857Z,37.60
2019-04-07T01:35:10.138Z,37.00
2019-04-07T01:35:59.827Z,37.00
2019-04-07T01:37:00.943Z,36.50
2019-04-07T01:38:13.682Z,37.50
2019-04-07T01:38:56.506Z,37.30
2019-04-07T01:40:19.884Z,37.10
2019-04-07T01:41:27.530Z,39.50
2019-04-07T01:42:15.185Z,38.20
2019-04-07T01:43:20.363Z,38.00
2019-04-07T01:44:40.942Z,37.50
2019-04-07T01:45:48.131Z,37.90
2019-04-07T01:46:43.320Z,38.00
2019-04-07T01:47:49.984Z,41.60
2019-04-07T01:49:03.918Z,39.30
2019-04-07T01:49:54.606Z,40.10
2019-04-07T01:51:02.330Z,38.80
2019-04-07T01:52:13.155Z,38.20
2019-04-07T01:53:15.315Z,38.90
2019-04-07T01:54:29.881Z,42.00
2019-04-07T01:55:29.905Z,36.80
2019-04-07T01:56:37.221Z,36.90
2019-04-07T01:57:41.097Z,37.20
2019-04-07T01:58:41.589Z,34.80
2019-04-07T01:59:57.337Z,36.40
2019-04-07T02:00:45.882Z,37.20
2019-04-07T02:01:59.314Z,37.40
2019-04-07T02:03:03.310Z,38.30
2019-04-07T02:04:19.149Z,37.00
2019-04-07T02:05:15.577Z,36.80
2019-04-07T02:06:22.580Z,36.60
2019-04-07T02:07:24.662Z,35.10
2019-04-07T02:08:41.818Z,35.50
2019-04-07T02:09:41.953Z,36.60
2019-04-07T02:10:37.957Z,35.50
2019-04-07T02:11:47.151Z,35.90
2019-04-07T02:12:55.692Z,35.40
2019-04-07T02:13:59.273Z,35.60
2019-04-07T02:15:11.578Z,36.50
2019-04-07T02:16:13.422Z,37.40
2019-04-07T02:17:07.388Z,40.70
2019-04-07T02:18:20.023Z,39.60
2019-04-07T02:19:26.961Z,39.90
2019-04-07T02:20:32.214Z,39.40
2019-04-07T02:21:40.589Z,35.80
2019-04-07T02:22:44.589Z,37.50
2019-04-07T02:23:54.823Z,36.20
2019-04-07T02:24:59.765Z,37.50
2019-04-07T02:25:56.290Z,36.00
2019-04-07T02:26:59.745Z,35.30
2019-04-07T02:28:12.212Z,35.50
2019-04-07T02:29:19.212Z,35.10
2019-04-07T02:30:21.709Z,34.30
2019-04-07T02:31:23.443Z,33.10
2019-04-07T02:32:33.295Z,35.00
2019-04-07T02:33:37.138Z,35.00
2019-04-07T02:34:46.620Z,36.20
2019-04-07T02:35:46.575Z,36.60
2019-04-07T02:36:48.482Z,35.10
2019-04-07T02:38:06.249Z,36.80
2019-04-07T02:39:09.210Z,36.80
2019-04-07T02:40:13.741Z,35.60
2019-04-07T02:41:17.893Z,35.70
2019-04-07T02:42:25.032Z,38.40
2019-04-07T02:43:27.945Z,37.50
2019-04-07T02:44:35.220Z,35.50
2019-04-07T02:45:38.507Z,37.20
2019-04-07T02:46:42.916Z,37.40
2019-04-07T02:47:51.287Z,37.10
2019-04-07T02:48:56.343Z,39.20
2019-04-07T02:50:05.154Z,38.60
2019-04-07T02:51:15.322Z,37.00
2019-04-07T02:52:19.102Z,35.70
2019-04-07T02:53:19.448Z,35.60
2019-04-07T02:54:25.972Z,36.10
2019-04-07T02:55:29.960Z,35.10
2019-04-07T02:56:34.075Z,36.60
2019-04-07T02:57:37.977Z,38.10
2019-04-07T02:58:40.414Z,37.80
2019-04-07T02:59:48.839Z,38.70
2019-04-07T03:01:01.946Z,35.70
2019-04-07T03:02:05.823Z,36.50
2019-04-07T03:03:05.696Z,35.70
2019-04-07T03:04:18.982Z,37.60
2019-04-07T03:05:15.716Z,35.70
2019-04-07T03:06:34.660Z,33.80
2019-04-07T03:07:33.434Z,34.00
2019-04-07T03:08:38.661Z,34.20
2019-04-07T03:09:40.725Z,35.10
2019-04-07T03:10:52.295Z,34.60
2019-04-07T03:11:52.543Z,32.70
2019-04-07T03:12:59.480Z,31.20
2019-04-07T03:14:04.606Z,32.00
2019-04-07T03:15:16.055Z,33.40
2019-04-07T03:16:12.402Z,32.20
2019-04-07T03:17:22.135Z,33.30
2019-04-07T03:18:25.206Z,37.10
2019-04-07T03:19:34.548Z,37.60
2019-04-07T03:20:37.876Z,35.30
2019-04-07T03:21:42.436Z,34.90
2019-04-07T03:22:43.859Z,36.10
2019-04-07T03:23:51.377Z,34.50
2019-04-07T03:25:07.454Z,35.60
2019-04-07T03:26:13.401Z,35.60
2019-04-07T03:27:15.725Z,36.10
2019-04-07T03:28:21.494Z,37.40
2019-04-07T03:29:25.561Z,37.90
2019-04-07T03:30:31.080Z,37.00
2019-04-07T03:31:36.286Z,36.50
2019-04-07T03:32:41.355Z,35.50
2019-04-07T03:33:39.542Z,36.30
2019-04-07T03:34:48.900Z,38.10
2019-04-07T03:35:55.926Z,39.00
2019-04-07T03:37:14.956Z,39.00
2019-04-07T03:38:12.659Z,39.50
2019-04-07T03:39:11.122Z,38.70
2019-04-07T03:40:18.387Z,36.20
2019-04-07T03:41:27.726Z,38.90
2019-04-07T03:42:29.757Z,39.10
2019-04-07T03:43:37.965Z,37.40
2019-04-07T03:44:43.113Z,38.50
2019-04-07T03:45:51.988Z,35.20
2019-04-07T03:46:55.033Z,36.60
2019-04-07T03:47:59.510Z,37.10
2019-04-07T03:49:04.951Z,36.90
2019-04-07T03:50:15.025Z,34.70
2019-04-07T03:51:15.404Z,34.30
2019-04-07T03:52:21.267Z,32.90
2019-04-07T03:53:20.140Z,34.90
2019-04-07T03:54:37.852Z,34.90
2019-04-07T03:55:46.562Z,33.40
2019-04-07T03:56:50.256Z,33.70
2019-04-07T03:57:44.859Z,32.60
2019-04-07T03:58:46.083Z,34.30
2019-04-07T04:00:13.027Z,34.70
2019-04-07T04:01:05.180Z,35.50
2019-04-07T04:02:02.484Z,33.70
2019-04-07T04:03:23.165Z,34.90
2019-04-07T04:04:16.005Z,35.90
2019-04-07T04:05:35.865Z,38.90
2019-04-07T04:06:40.645Z,36.80
2019-04-07T04:07:36.997Z,37.50
2019-04-07T04:08:47.548Z,35.90
2019-04-07T04:09:54.032Z,35.10
2019-04-07T04:10:53.011Z,34.20
2019-04-07T04:12:01.302Z,36.60
2019-04-07T04:13:01.222Z,37.60
2019-04-07T04:14:20.280Z,33.10
2019-04-07T04:15:18.254Z,34.20
2019-04-07T04:16:32.682Z,34.80
2019-04-07T04:17:25.122Z,37.70
2019-04-07T04:18:26.855Z,38.90
2019-04-07T04:19:30.753Z,35.20
2019-04-07T04:20:46.406Z,35.20
2019-04-07T04:21:50.984Z,38.60
2019-04-07T04:23:03.834Z,41.30
2019-04-07T04:24:04.146Z,37.00
2019-04-07T04:25:19.938Z,35.10
2019-04-07T04:26:17.720Z,35.10
2019-04-07T04:27:41.971Z,36.90
2019-04-07T04:28:29.087Z,34.90
2019-04-07T04:29:53.450Z,35.00
2019-04-07T04:30:56.686Z,35.70
2019-04-07T04:31:30.970Z,34.20
2019-04-07T04:32:31.660Z,36.00
2019-04-07T04:34:03.337Z,38.20
2019-04-07T04:35:03.453Z,34.90
2019-04-07T04:36:22.472Z,38.30
2019-04-07T04:37:01.777Z,39.10
2019-04-07T04:38:39.190Z,35.10
2019-04-07T04:39:26.250Z,34.90
2019-04-07T04:40:26.319Z,34.30
2019-04-07T04:41:43.396Z,34.20
2019-04-07T04:42:47.188Z,34.10
2019-04-07T04:43:50.687Z,35.70
2019-04-07T04:45:16.832Z,35.20
2019-04-07T04:46:38.923Z,33.80
2019-04-07T04:47:42.804Z,37.20
2019-04-07T04:48:42.968Z,37.80
2019-04-07T04:49:35.668Z,36.80
2019-04-07T04:50:52.467Z,36.80
2019-04-07T04:52:33.004Z,36.40
2019-04-07T04:53:28.980Z,36.50
2019-04-07T04:54:27.867Z,36.00
2019-04-07T04:55:18.913Z,36.40
2019-04-07T04:56:37.517Z,34.30
2019-04-07T04:57:49.847Z,33.90
2019-04-07T04:58:46.286Z,33.10
2019-04-07T05:00:00.620Z,33.70
2019-04-07T05:01:45.076Z,33.80
2019-04-07T05:04:29.421Z,32.20
2019-04-07T05:05:59.331Z,34.50
2019-04-07T05:07:01.595Z,33.60
2019-04-07T05:08:34.576Z,34.80
2019-04-07T05:09:51.193Z,31.90
2019-04-07T05:10:52.093Z,33.50
2019-04-07T05:12:07.357Z,31.90
2019-04-07T05:13:08.187Z,32.50
2019-04-07T05:14:37.808Z,33.50
2019-04-07T05:15:48.501Z,34.40
2019-04-07T05:16:19.978Z,34.50
2019-04-07T05:17:54.907Z,33.10
2019-04-07T05:19:14.283Z,35.70
2019-04-07T05:20:34.510Z,33.70
2019-04-07T05:22:01.589Z,33.00
2019-04-07T05:23:05.241Z,33.90
2019-04-07T05:24:55.532Z,30.60
2019-04-07T05:25:50.355Z,32.20
2019-04-07T05:26:31.201Z,32.00
2019-04-07T05:29:08.395Z,33.10
2019-04-07T05:30:16.845Z,33.80
2019-04-07T05:31:31.552Z,32.60
2019-04-07T05:32:29.716Z,32.50
2019-04-07T05:33:33.411Z,31.70
2019-04-07T05:34:20.516Z,32.00
2019-04-07T05:35:39.533Z,30.70
2019-04-07T05:36:33.530Z,29.60
2019-04-07T05:37:34.135Z,28.90
2019-04-07T05:38:44.554Z,29.10
2019-04-07T05:40:10.020Z,29.80
2019-04-07T05:41:12.062Z,28.90
2019-04-07T05:42:38.946Z,29.10
2019-04-07T05:43:55.756Z,30.30
2019-04-07T05:44:55.995Z,31.70
2019-04-07T05:45:56.635Z,33.10
2019-04-07T05:47:27.626Z,34.20
2019-04-07T05:48:21.592Z,34.90
2019-04-07T05:49:12.032Z,33.90
2019-04-07T05:50:17.036Z,34.00
2019-04-07T05:51:25.237Z,35.60
2019-04-07T05:52:54.023Z,34.30
2019-04-07T05:54:03.591Z,34.80
2019-04-07T05:54:42.815Z,34.20
2019-04-07T05:56:17.602Z,35.30
2019-04-07T05:57:07.667Z,36.60
2019-04-07T05:58:18.020Z,34.50
2019-04-07T05:59:16.384Z,36.20
2019-04-07T06:00:07.789Z,36.20
2019-04-07T06:01:23.264Z,35.70
2019-04-07T06:02:44.968Z,36.00
2019-04-07T06:03:45.837Z,35.80
2019-04-07T06:04:34.939Z,35.00
2019-04-07T06:05:32.399Z,37.20
2019-04-07T06:06:51.561Z,36.80
2019-04-07T06:08:00.676Z,36.50
2019-04-07T06:08:50.855Z,38.40
2019-04-07T06:10:05.438Z,43.00
2019-04-07T06:11:10.384Z,40.70
2019-04-07T06:12:24.050Z,40.00
2019-04-07T06:13:07.262Z,41.60
2019-04-07T06:14:30.288Z,44.10
2019-04-07T06:15:39.164Z,43.10
2019-04-07T06:16:38.771Z,43.70
2019-04-07T06:17:31.462Z,44.30
2019-04-07T06:18:39.658Z,42.90
2019-04-07T06:19:46.319Z,45.00
2019-04-07T06:21:00.047Z,42.50
2019-04-07T06:22:03.435Z,41.60
2019-04-07T06:23:08.479Z,41.90
2019-04-07T06:24:06.319Z,39.90
2019-04-07T06:25:11.246Z,39.90
2019-04-07T06:26:33.097Z,40.50
2019-04-07T06:27:25.184Z,40.40
2019-04-07T06:28:22.935Z,41.10
2019-04-07T06:29:36.602Z,41.10
2019-04-07T06:30:43.014Z,41.40
2019-04-07T06:31:48.225Z,40.40
2019-04-07T06:33:05.312Z,39.30
2019-04-07T06:34:00.861Z,38.20
2019-04-07T06:35:05.672Z,38.40
2019-04-07T06:36:07.011Z,38.20
2019-04-07T06:37:12.238Z,36.80
2019-04-07T06:38:29.573Z,37.10
2019-04-07T06:39:24.649Z,37.10
2019-04-07T06:40:33.828Z,37.70
2019-04-07T06:41:34.263Z,37.90
2019-04-07T06:42:44.049Z,38.50
2019-04-07T06:43:45.176Z,39.10
2019-04-07T06:44:54.236Z,38.20
2019-04-07T06:46:01.714Z,38.20
2019-04-07T06:46:59.966Z,38.60
2019-04-07T06:48:07.658Z,37.60
2019-04-07T06:49:12.265Z,38.40
2019-04-07T06:50:20.552Z,37.70
2019-04-07T06:51:30.148Z,37.90
2019-04-07T06:52:32.278Z,37.70
2019-04-07T06:53:32.833Z,36.90
2019-04-07T06:54:42.572Z,37.80
2019-04-07T06:55:46.361Z,37.90
2019-04-07T06:56:47.392Z,36.70
2019-04-07T06:57:57.055Z,36.80
2019-04-07T06:59:15.577Z,37.00
2019-04-07T07:00:03.693Z,35.60
2019-04-07T07:01:05.817Z,36.70
2019-04-07T07:02:22.549Z,36.40
2019-04-07T07:03:26.975Z,35.80
2019-04-07T07:04:25.285Z,36.60
2019-04-07T07:05:34.146Z,35.10
2019-04-07T07:06:40.576Z,34.50
2019-04-07T07:07:48.165Z,35.40
2019-04-07T07:08:46.390Z,34.60
2019-04-07T07:09:58.148Z,35.00
2019-04-07T07:11:07.954Z,35.20
2019-04-07T07:12:20.611Z,34.50
2019-04-07T07:13:26.528Z,33.10
2019-04-07T07:14:14.135Z,32.80
2019-04-07T07:15:18.194Z,33.40
2019-04-07T07:16:25.136Z,34.30
2019-04-07T07:17:32.310Z,33.70
2019-04-07T07:18:37.103Z,33.10
2019-04-07T07:19:46.422Z,34.70
2019-04-07T07:21:06.796Z,35.60
2019-04-07T07:21:55.739Z,34.30
2019-04-07T07:23:05.888Z,34.40
2019-04-07T07:24:12.320Z,34.30
2019-04-07T07:25:29.770Z,33.60
2019-04-07T07:26:32.924Z,33.80
2019-04-07T07:27:13.401Z,34.40
2019-04-07T07:28:26.167Z,34.00
2019-04-07T07:29:40.044Z,33.70
2019-04-07T07:30:40.451Z,33.40
2019-04-07T07:31:40.386Z,33.40
2019-04-07T07:33:00.697Z,32.40
2019-04-07T07:34:01.061Z,31.90
2019-04-07T07:35:05.091Z,30.50
2019-04-07T07:36:12.371Z,29.70
2019-04-07T07:37:26.832Z,29.90
2019-04-07T07:38:13.991Z,29.50
2019-04-07T07:39:34.013Z,30.40
2019-04-07T07:40:40.831Z,29.10
2019-04-07T07:41:40.123Z,29.00
2019-04-07T07:42:51.018Z,28.00
2019-04-07T07:43:43.561Z,27.70
2019-04-07T07:45:10.746Z,28.10
2019-04-07T07:46:03.806Z,27.80
2019-04-07T07:47:02.786Z,27.70
2019-04-07T07:48:10.990Z,27.50
2019-04-07T07:49:19.171Z,28.10
2019-04-07T07:50:28.359Z,26.40
2019-04-07T07:51:55.972Z,26.30
2019-04-07T07:52:36.204Z,27.20
2019-04-07T07:53:50.521Z,27.00
2019-04-07T07:54:35.112Z,26.90
2019-04-07T07:55:46.705Z,27.60
2019-04-07T07:57:04.930Z,26.00
2019-04-07T07:58:06.141Z,26.50
2019-04-07T07:59:11.161Z,26.00
2019-04-07T08:00:23.355Z,25.40
2019-04-07T08:01:19.201Z,25.60
2019-04-07T08:02:21.914Z,25.20
2019-04-07T08:03:32.185Z,25.70
2019-04-07T08:04:33.439Z,26.30
2019-04-07T08:05:39.271Z,26.30
2019-04-07T08:06:45.052Z,26.00
2019-04-07T08:07:50.002Z,25.00
2019-04-07T08:09:12.110Z,26.10
2019-04-07T08:09:59.596Z,24.80
2019-04-07T08:11:03.058Z,25.20
2019-04-07T08:12:09.480Z,25.30
2019-04-07T08:13:17.850Z,25.30
2019-04-07T08:14:28.339Z,23.70
2019-04-07T08:15:32.301Z,25.30
2019-04-07T08:16:39.050Z,24.10
2019-04-07T08:17:38.074Z,24.80
2019-04-07T08:18:46.440Z,23.80
2019-04-07T08:19:59.829Z,24.20
2019-04-07T08:20:58.954Z,23.70
2019-04-07T08:22:08.714Z,23.20
2019-04-07T08:23:13.408Z,22.90
2019-04-07T08:24:17.363Z,23.60
2019-04-07T08:25:20.531Z,23.00
2019-04-07T08:26:35.122Z,23.30
2019-04-07T08:27:30.247Z,23.80
2019-04-07T08:28:36.973Z,23.50
2019-04-07T08:29:37.258Z,21.90
2019-04-07T08:30:38.247Z,23.40
2019-04-07T08:31:56.612Z,23.00
2019-04-07T08:33:03.629Z,22.60
2019-04-07T08:34:03.722Z,22.60
2019-04-07T08:35:11.022Z,22.60
2019-04-07T08:36:14.724Z,21.50
2019-04-07T08:37:23.611Z,21.70
2019-04-07T08:38:36.654Z,22.20
2019-04-07T08:39:35.180Z,22.20
2019-04-07T08:40:39.164Z,21.60
2019-04-07T08:41:48.263Z,21.80
2019-04-07T08:42:50.174Z,20.70
2019-04-07T08:44:11.415Z,21.40
2019-04-07T08:45:17.895Z,21.30
2019-04-07T08:46:09.990Z,20.40
2019-04-07T08:47:02.795Z,21.30
2019-04-07T08:48:18.943Z,21.40
2019-04-07T08:49:32.082Z,20.50
2019-04-07T08:50:44.394Z,20.80
2019-04-07T08:52:15.267Z,21.10
2019-04-07T08:52:42.646Z,20.10
2019-04-07T08:54:18.606Z,21.20
2019-04-07T08:55:22.492Z,21.10
2019-04-07T08:56:37.746Z,21.70
2019-04-07T08:57:55.027Z,21.90
2019-04-07T08:59:45.298Z,20.40
2019-04-07T09:01:21.172Z,20.80
2019-04-07T09:03:00.904Z,20.60
2019-04-07T09:03:56.966Z,20.00
2019-04-07T09:04:52.430Z,20.30
2019-04-07T09:06:06.193Z,19.80
2019-04-07T09:07:19.270Z,21.00
2019-04-07T09:08:11.761Z,20.00
2019-04-07T09:09:34.119Z,19.60
2019-04-07T09:10:18.706Z,20.30
2019-04-07T09:11:15.767Z,20.10
2019-04-07T09:12:24.877Z,19.60
2019-04-07T09:13:20.804Z,19.90
2019-04-07T09:14:28.406Z,19.50
2019-04-07T09:15:26.236Z,20.30
2019-04-07T09:16:34.395Z,20.30
2019-04-07T09:17:40.464Z,19.30
2019-04-07T09:18:51.726Z,19.50
2019-04-07T09:19:55.542Z,19.40
2019-04-07T09:20:56.066Z,19.10
2019-04-07T09:22:01.890Z,19.30
2019-04-07T09:23:03.344Z,19.70
2019-04-07T09:24:16.409Z,20.00
2019-04-07T09:25:21.512Z,19.30
2019-04-07T09:26:22.581Z,19.80
2019-04-07T09:27:23.517Z,19.60
2019-04-07T09:28:31.485Z,20.30
2019-04-07T09:29:39.634Z,20.10
2019-04-07T09:30:42.197Z,19.60
2019-04-07T09:31:57.627Z,19.00
2019-04-07T09:33:01.276Z,18.90
2019-04-07T09:33:57.208Z,18.50
2019-04-07T09:35:11.257Z,18.60
2019-04-07T09:36:13.886Z,18.60
2019-04-07T09:37:24.322Z,17.70
2019-04-07T09:38:27.283Z,18.20
2019-04-07T09:39:26.935Z,18.00
2019-04-07T09:40:27.925Z,18.50
2019-04-07T09:41:36.419Z,18.70
2019-04-07T09:42:45.989Z,18.40
2019-04-07T09:44:01.054Z,18.10
2019-04-07T09:44:52.882Z,17.80
2019-04-07T09:46:05.140Z,17.60
2019-04-07T09:47:04.351Z,17.30
2019-04-07T09:48:21.020Z,18.40
2019-04-07T09:49:13.547Z,18.50
2019-04-07T09:50:15.162Z,18.50
2019-04-07T09:51:24.350Z,18.50
2019-04-07T09:52:32.728Z,17.70
2019-04-07T09:53:44.821Z,18.30
2019-04-07T09:54:41.956Z,17.90
2019-04-07T09:55:50.527Z,18.40
2019-04-07T09:56:52.621Z,18.20
2019-04-07T09:58:07.755Z,17.60
2019-04-07T09:59:07.886Z,17.60
2019-04-07T10:00:17.419Z,17.30
2019-04-07T10:01:12.123Z,16.80
2019-04-07T10:02:25.084Z,16.80
2019-04-07T10:03:32.190Z,16.80
2019-04-07T10:04:38.181Z,16.50
2019-04-07T10:05:40.345Z,16.70
2019-04-07T10:06:49.400Z,16.70
2019-04-07T10:07:53.201Z,16.50
2019-04-07T10:09:00.036Z,16.20
2019-04-07T10:10:04.610Z,16.70
2019-04-07T10:11:06.954Z,16.20
2019-04-07T10:12:10.218Z,15.60
2019-04-07T10:13:24.053Z,14.40
2019-04-07T10:14:19.542Z,14.60
2019-04-07T10:15:34.015Z,15.10
2019-04-07T10:16:33.785Z,14.20
2019-04-07T10:17:43.116Z,14.40
2019-04-07T10:18:55.159Z,14.70
2019-04-07T10:19:48.938Z,14.60
2019-04-07T10:20:56.781Z,13.80
2019-04-07T10:22:01.625Z,13.00
2019-04-07T10:23:16.758Z,13.20
2019-04-07T10:24:17.018Z,13.20
2019-04-07T10:25:17.490Z,12.80
2019-04-07T10:26:33.819Z,12.70
2019-04-07T10:27:31.298Z,12.00
2019-04-07T10:28:42.818Z,11.90
2019-04-07T10:29:47.009Z,12.00
2019-04-07T10:30:41.537Z,12.00
2019-04-07T10:32:02.405Z,11.90
2019-04-07T10:32:57.393Z,11.90
2019-04-07T10:34:08.150Z,12.20
2019-04-07T10:35:11.270Z,11.60
2019-04-07T10:36:17.260Z,11.90
2019-04-07T10:37:21.923Z,11.90
2019-04-07T10:38:27.112Z,11.30
2019-04-07T10:39:25.043Z,11.60
2019-04-07T10:40:44.421Z,11.60
2019-04-07T10:41:48.439Z,11.30
2019-04-07T10:42:45.762Z,11.30
2019-04-07T10:44:01.584Z,10.50
2019-04-07T10:45:03.699Z,11.30
2019-04-07T10:46:04.423Z,10.50
2019-04-07T10:47:13.655Z,10.50
2019-04-07T10:48:16.519Z,11.00
2019-04-07T10:49:26.198Z,10.80
2019-04-07T10:50:33.587Z,10.80
2019-04-07T10:51:51.357Z,10.90
2019-04-07T10:52:54.451Z,11.20
2019-04-07T10:54:02.617Z,10.30
2019-04-07T10:55:09.735Z,10.80
2019-04-07T10:56:10.329Z,10.40
2019-04-07T10:57:12.308Z,10.60
2019-04-07T10:58:38.005Z,10.40
2019-04-07T10:59:23.544Z,10.40
2019-04-07T11:00:34.884Z,10.30
2019-04-07T11:01:39.832Z,10.30
2019-04-07T11:02:26.988Z,10.50
2019-04-07T11:03:37.089Z,10.40
2019-04-07T11:04:55.192Z,9.80
2019-04-07T11:05:54.890Z,10.10
2019-04-07T11:06:50.237Z,10.00
2019-04-07T11:08:07.094Z,10.20
2019-04-07T11:09:04.775Z,9.50
2019-04-07T11:10:28.820Z,9.60
2019-04-07T11:11:22.248Z,9.80
2019-04-07T11:12:36.770Z,10.30
2019-04-07T11:13:27.639Z,10.50
2019-04-07T11:14:40.462Z,10.10
2019-04-07T11:15:47.629Z,9.80
2019-04-07T11:16:43.239Z,10.30
2019-04-07T11:17:50.366Z,9.80
2019-04-07T11:18:56.543Z,10.00
2019-04-07T11:20:04.771Z,10.20
2019-04-07T11:21:09.503Z,10.60
2019-04-07T11:22:12.257Z,10.40
2019-04-07T11:23:21.737Z,10.00
2019-04-07T11:24:25.063Z,10.20
2019-04-07T11:25:34.689Z,11.00
2019-04-07T11:26:39.710Z,9.90
2019-04-07T11:27:40.871Z,10.10
2019-04-07T11:28:53.681Z,9.90
2019-04-07T11:29:53.986Z,10.00
2019-04-07T11:30:56.327Z,8.80
2019-04-07T11:32:06.516Z,9.40
2019-04-07T11:33:07.118Z,9.60
2019-04-07T11:34:08.759Z,9.60
2019-04-07T11:35:19.309Z,10.00
2019-04-07T11:36:26.576Z,10.20
2019-04-07T11:37:30.864Z,10.20
2019-04-07T11:38:39.501Z,10.40
2019-04-07T11:39:32.702Z,10.70
2019-04-07T11:40:49.974Z,11.10
2019-04-07T11:41:58.950Z,11.60
2019-04-07T11:42:52.416Z,11.30
2019-04-07T11:44:07.792Z,10.70
2019-04-07T11:45:08.216Z,10.60
2019-04-07T11:46:07.195Z,10.90
2019-04-07T11:47:16.388Z,10.60
2019-04-07T11:48:20.969Z,10.40
2019-04-07T11:49:28.995Z,10.50
2019-04-07T11:50:41.935Z,10.90
2019-04-07T11:51:44.126Z,11.70
2019-04-07T11:52:36.722Z,11.10
2019-04-07T11:53:48.404Z,11.70
2019-04-07T11:55:00.884Z,11.70
2019-04-07T11:56:09.880Z,11.70
2019-04-07T11:57:07.370Z,11.70
2019-04-07T11:58:16.529Z,11.80
2019-04-07T11:59:14.714Z,11.70
2019-04-07T12:00:25.074Z,11.10
2019-04-07T12:01:24.052Z,11.90
2019-04-07T12:02:40.398Z,11.80
2019-04-07T12:03:32.915Z,11.50
2019-04-07T12:04:51.735Z,11.50
2019-04-07T12:05:51.458Z,10.80
2019-04-07T12:06:56.448Z,10.90
2019-04-07T12:08:02.028Z,11.20
2019-04-07T12:09:06.518Z,11.30
2019-04-07T12:10:08.380Z,11.50
2019-04-07T12:11:14.180Z,12.10
2019-04-07T12:12:28.725Z,12.40
2019-04-07T12:13:37.503Z,12.30
2019-04-07T12:14:36.302Z,11.60
2019-04-07T12:15:40.020Z,11.60
2019-04-07T12:16:47.025Z,12.30
2019-04-07T12:17:55.665Z,12.40
2019-04-07T12:19:03.324Z,12.10
2019-04-07T12:20:04.261Z,11.70
2019-04-07T12:21:18.434Z,12.30
2019-04-07T12:22:16.070Z,12.00
2019-04-07T12:23:24.242Z,12.20
2019-04-07T12:24:24.638Z,12.10
2019-04-07T12:25:32.728Z,11.90
2019-04-07T12:26:39.420Z,11.70
2019-04-07T12:27:46.243Z,12.60
2019-04-07T12:28:43.320Z,12.00
2019-04-07T12:29:53.651Z,12.10
2019-04-07T12:30:56.402Z,11.50
2019-04-07T12:32:13.444Z,12.00
2019-04-07T12:33:09.891Z,12.50
2019-04-07T12:34:18.960Z,13.20
2019-04-07T12:35:21.657Z,11.90
2019-04-07T12:36:34.396Z,13.00
2019-04-07T12:37:30.682Z,13.00
2019-04-07T12:38:33.862Z,12.90
2019-04-07T12:39:41.865Z,12.20
2019-04-07T12:40:51.024Z,12.40
2019-04-07T12:42:06.032Z,12.50
2019-04-07T12:43:00.559Z,12.40
2019-04-07T12:44:06.073Z,12.20
2019-04-07T12:45:04.744Z,12.60
2019-04-07T12:46:21.082Z,11.90
2019-04-07T12:47:21.437Z,12.30
2019-04-07T12:48:33.526Z,13.10
2019-04-07T12:49:28.732Z,12.40
2019-04-07T12:50:35.611Z,12.90
2019-04-07T12:51:53.047Z,12.80
2019-04-07T12:52:49.126Z,13.70
2019-04-07T12:54:00.185Z,12.50
2019-04-07T12:55:17.723Z,13.60
2019-04-07T12:56:03.682Z,13.10
2019-04-07T12:57:07.369Z,13.10
2019-04-07T12:58:19.360Z,13.00
2019-04-07T12:59:27.233Z,13.20
2019-04-07T13:00:30.829Z,12.70
2019-04-07T13:01:47.271Z,12.50
2019-04-07T13:02:47.493Z,12.60
2019-04-07T13:03:45.101Z,12.10
2019-04-07T13:04:57.257Z,12.60
2019-04-07T13:05:55.288Z,12.50
2019-04-07T13:07:03.810Z,13.00
2019-04-07T13:08:16.829Z,13.60
2019-04-07T13:09:20.466Z,13.30
2019-04-07T13:10:20.603Z,13.70
2019-04-07T13:11:33.157Z,13.00
2019-04-07T13:12:35.449Z,13.50
2019-04-07T13:13:30.641Z,13.80
2019-04-07T13:14:47.508Z,13.10
2019-04-07T13:15:58.197Z,13.10
2019-04-07T13:16:59.171Z,13.00
2019-04-07T13:17:55.239Z,13.10
2019-04-07T13:19:10.490Z,12.10
2019-04-07T13:20:07.390Z,12.80
2019-04-07T13:21:23.285Z,12.90
2019-04-07T13:22:18.282Z,13.00
2019-04-07T13:23:39.711Z,12.70
2019-04-07T13:24:41.492Z,12.90
2019-04-07T13:25:45.364Z,13.40
2019-04-07T13:26:37.675Z,12.70
2019-04-07T13:27:46.864Z,12.50
2019-04-07T13:28:57.534Z,12.40
2019-04-07T13:29:55.404Z,12.50
2019-04-07T13:31:14.501Z,12.20
2019-04-07T13:32:22.058Z,12.10
2019-04-07T13:33:23.855Z,12.40
2019-04-07T13:34:12.951Z,12.60
2019-04-07T13:35:31.898Z,12.30
2019-04-07T13:36:51.055Z,12.60
2019-04-07T13:37:38.382Z,13.00
2019-04-07T13:38:45.834Z,12.80
2019-04-07T13:39:53.395Z,12.10
2019-04-07T13:40:53.093Z,13.00
2019-04-07T13:42:00.203Z,12.10
2019-04-07T13:43:18.742Z,12.00
2019-04-07T13:44:14.987Z,12.60
2019-04-07T13:45:24.767Z,12.00
2019-04-07T13:46:38.905Z,12.80
2019-04-07T13:47:39.478Z,13.00
2019-04-07T13:48:43.050Z,12.90
2019-04-07T13:49:42.449Z,13.20
2019-04-07T13:50:44.969Z,13.70
2019-04-07T13:51:46.916Z,13.20
2019-04-07T13:53:06.665Z,13.50
2019-04-07T13:54:23.028Z,12.70
2019-04-07T13:55:40.274Z,12.60
2019-04-07T13:57:16.579Z,12.50
2019-04-07T13:58:17.195Z,13.80
2019-04-07T13:58:56.592Z,13.20
2019-04-07T14:00:16.874Z,13.20
2019-04-07T14:01:03.510Z,13.20
2019-04-07T14:02:42.214Z,13.50
2019-04-07T14:03:29.147Z,13.40
2019-04-07T14:04:21.473Z,13.30
2019-04-07T14:05:44.795Z,13.00
2019-04-07T14:06:43.535Z,12.80
2019-04-07T14:07:58.975Z,12.90
2019-04-07T14:08:59.863Z,11.90
2019-04-07T14:09:50.746Z,11.90
2019-04-07T14:10:59.256Z,12.30
2019-04-07T14:12:12.712Z,12.50
2019-04-07T14:13:25.713Z,13.50
2019-04-07T14:14:26.752Z,13.50
2019-04-07T14:15:19.368Z,12.90
2019-04-07T14:16:27.887Z,12.90